Terminal Aerodrome Forecast
Issued by NWS

Home | Current Version | Previous Version | Text Only | Print | Product List | Glossary On
Versions: 1 2 3 4 5 6 7 8 9 10 11 12 13 14 15 16 17
000
FTUS43 KEAX 031500 AAB
TAFSTJ
TAF AMD
KSTJ 031505Z 0315/0412 23012KT 4SM BR OVC006
     FM031700 24014G23KT P6SM BKN015
     FM032000 33013KT P6SM BKN030=

USA.gov is the U.S. government's official web portal to all federal, state and local government web resources and services.